Time;durP1;ratioP1;P1;durP2;ratioP2;P2;SDS_P1;SDS_P2;PMS_P1;PMS_P2;Temp;Humidity;BMP_temperature;BMP_pressure;BME280_temperature;BME280_humidity;BME280_pressure;Samples;Min_cycle;Max_cycle;Signal;HPM_P1;HPM_P2
2023/08/25 00:00:12;;;;;;;20.88;9.07;;;30.60;99.90;;;;;;5115229;27;20028;-40
2023/08/25 00:02:39;;;;;;;19.20;9.63;;;30.60;99.90;;;;;;5112458;28;20026;-49
2023/08/25 00:05:06;;;;;;;22.98;9.35;;;30.60;99.90;;;;;;5110047;28;20070;-45
2023/08/25 00:07:32;;;;;;;19.02;8.80;;;30.50;99.90;;;;;;5112918;28;20088;-45
2023/08/25 00:09:59;;;;;;;13.93;8.13;;;30.50;99.90;;;;;;5106352;28;20088;-48
2023/08/25 00:12:26;;;;;;;13.85;7.85;;;30.50;99.90;;;;;;5106109;28;20012;-51
2023/08/25 00:14:52;;;;;;;18.80;7.93;;;30.50;99.90;;;;;;5106378;28;20070;-45
2023/08/25 00:17:21;;;;;;;19.27;7.43;;;30.50;99.90;;;;;;5106331;28;20173;-42
2023/08/25 00:19:47;;;;;;;11.00;6.53;;;30.40;99.90;;;;;;5105821;28;20024;-44
2023/08/25 00:22:14;;;;;;;12.38;6.45;;;30.40;99.90;;;;;;5105965;28;20026;-46
2023/08/25 00:24:40;;;;;;;9.73;6.13;;;30.50;99.90;;;;;;5115688;28;20060;-47
2023/08/25 00:27:07;;;;;;;9.50;5.72;;;30.40;99.90;;;;;;5119237;28;20042;-50
2023/08/25 00:29:33;;;;;;;7.40;5.53;;;30.50;99.90;;;;;;5106030;28;20031;-44
2023/08/25 00:32:00;;;;;;;10.73;5.25;;;30.40;99.90;;;;;;5113360;28;20027;-43
2023/08/25 00:34:26;;;;;;;8.63;5.20;;;30.40;99.90;;;;;;5108688;28;20087;-55
2023/08/25 00:36:53;;;;;;;9.45;4.80;;;30.50;99.90;;;;;;5105844;28;20058;-48
2023/08/25 00:39:19;;;;;;;8.63;4.25;;;30.40;99.90;;;;;;5105549;28;20052;-47
2023/08/25 00:41:46;;;;;;;5.80;4.25;;;30.40;99.90;;;;;;5105590;28;20020;-46
2023/08/25 00:44:13;;;;;;;5.93;3.95;;;30.30;99.90;;;;;;5105378;28;20059;-43
2023/08/25 00:46:39;;;;;;;9.38;3.60;;;30.30;99.90;;;;;;5105380;28;20020;-42
2023/08/25 00:49:06;;;;;;;6.57;3.63;;;30.20;99.90;;;;;;5105290;28;20016;-49
2023/08/25 00:51:33;;;;;;;8.70;3.47;;;30.20;99.90;;;;;;5105189;28;20016;-46
2023/08/25 00:54:01;;;;;;;7.07;3.53;;;30.20;99.90;;;;;;5105241;28;20024;-49
2023/08/25 00:56:27;;;;;;;6.57;3.47;;;30.10;99.90;;;;;;5105166;28;20027;-46
2023/08/25 00:58:54;;;;;;;7.63;3.35;;;29.80;99.90;;;;;;5112414;28;20019;-53
2023/08/25 01:01:21;;;;;;;10.65;3.25;;;29.60;99.90;;;;;;5105530;28;20023;-57
2023/08/25 01:03:48;;;;;;;6.57;3.67;;;29.50;99.90;;;;;;5105130;28;20020;-53
2023/08/25 01:06:15;;;;;;;7.22;3.60;;;29.40;99.90;;;;;;5123444;28;20054;-54
2023/08/25 01:08:43;;;;;;;6.78;3.30;;;29.40;99.90;;;;;;5116794;28;20026;-49
2023/08/25 01:11:56;;;;;;;13.80;5.13;;;29.40;99.90;;;;;;5125447;28;20024;-52
2023/08/25 01:14:41;;;;;;;9.80;5.00;;;29.30;99.90;;;;;;5125372;28;20023;-51
2023/08/25 01:17:36;;;;;;;8.77;4.93;;;29.20;99.90;;;;;;5121938;28;20058;-51
2023/08/25 01:20:07;;;;;;;8.63;4.70;;;29.20;99.90;;;;;;5105043;28;20034;-53
2023/08/25 01:23:01;;;;;;;17.10;4.82;;;29.20;99.90;;;;;;5104787;28;20069;-52
2023/08/25 01:25:29;;;;;;;6.95;3.92;;;29.30;99.90;;;;;;5105113;28;20070;-57
2023/08/25 01:28:01;;;;;;;5.72;4.22;;;29.30;99.90;;;;;;5104684;28;20019;-56
2023/08/25 01:30:32;;;;;;;9.10;4.43;;;29.30;99.90;;;;;;5104574;28;20023;-53
2023/08/25 01:32:59;;;;;;;7.65;4.13;;;29.30;99.90;;;;;;5104492;28;20243;-61
2023/08/25 01:35:38;;;;;;;5.90;4.40;;;29.30;99.90;;;;;;5104943;28;20069;-57
2023/08/25 01:38:19;;;;;;;9.15;4.57;;;29.30;99.90;;;;;;5104529;28;20055;-43
2023/08/25 01:40:56;;;;;;;10.27;4.43;;;29.30;99.90;;;;;;5104980;28;20024;-47
2023/08/25 01:43:29;;;;;;;6.68;4.10;;;29.30;99.90;;;;;;5106135;28;20020;-45
2023/08/25 01:45:57;;;;;;;5.03;3.88;;;29.30;99.90;;;;;;5113694;28;20040;-45
2023/08/25 01:48:24;;;;;;;9.93;4.38;;;29.20;99.90;;;;;;5104977;28;20015;-44
2023/08/25 01:50:51;;;;;;;10.23;4.57;;;29.30;99.90;;;;;;5113631;28;20026;-53
2023/08/25 01:53:18;;;;;;;8.25;4.00;;;29.30;99.90;;;;;;5124797;28;20238;-45
2023/08/25 01:55:44;;;;;;;8.30;3.38;;;29.20;99.90;;;;;;5125186;28;20084;-48
2023/08/25 01:58:13;;;;;;;7.28;3.60;;;29.10;99.90;;;;;;5124232;28;20063;-48
2023/08/25 02:00:39;;;;;;;6.65;3.90;;;29.10;99.90;;;;;;5125089;28;20028;-44
2023/08/25 02:03:06;;;;;;;5.50;3.33;;;29.00;99.90;;;;;;5124363;28;20016;-50
2023/08/25 02:05:32;;;;;;;10.18;3.50;;;29.00;99.90;;;;;;5124830;28;20069;-46
2023/08/25 02:07:59;;;;;;;6.05;3.40;;;28.90;99.90;;;;;;5124622;28;20084;-54
2023/08/25 02:10:26;;;;;;;5.10;3.10;;;28.90;99.90;;;;;;5124627;28;20030;-46
2023/08/25 02:12:52;;;;;;;8.43;3.95;;;28.80;99.90;;;;;;5123525;28;20023;-45
2023/08/25 02:15:19;;;;;;;5.93;3.28;;;28.90;99.90;;;;;;5124786;28;20091;-51
2023/08/25 02:17:45;;;;;;;7.82;3.85;;;28.90;99.90;;;;;;5124153;28;20016;-48
2023/08/25 02:20:12;;;;;;;15.48;11.48;;;28.90;99.90;;;;;;5122279;28;20035;-53
2023/08/25 02:22:39;;;;;;;8.10;4.75;;;28.90;99.90;;;;;;5114871;28;20028;-50
2023/08/25 02:25:06;;;;;;;7.93;4.13;;;28.90;99.90;;;;;;5104131;28;20203;-57
2023/08/25 02:27:32;;;;;;;6.55;3.95;;;28.90;99.90;;;;;;5104081;28;20024;-52
2023/08/25 02:29:59;;;;;;;5.72;3.83;;;28.90;99.90;;;;;;5108971;28;20026;-51
2023/08/25 02:32:25;;;;;;;8.98;3.97;;;28.90;99.90;;;;;;5122772;28;20064;-47
2023/08/25 02:34:52;;;;;;;8.15;4.03;;;29.00;99.90;;;;;;5120339;28;20031;-53
2023/08/25 02:37:18;;;;;;;6.88;3.88;;;29.00;99.90;;;;;;5119140;28;20080;-46
2023/08/25 02:39:45;;;;;;;5.43;3.40;;;29.10;99.90;;;;;;5103772;28;20035;-43
2023/08/25 02:42:13;;;;;;;6.28;3.60;;;29.10;99.90;;;;;;5104534;28;20065;-44
2023/08/25 02:44:39;;;;;;;4.88;3.40;;;29.10;99.90;;;;;;5114275;27;20027;-43
2023/08/25 02:47:06;;;;;;;7.47;4.07;;;29.10;99.90;;;;;;5119464;28;20051;-50
2023/08/25 02:49:32;;;;;;;7.65;3.97;;;29.10;99.90;;;;;;5121807;27;20360;-50
2023/08/25 02:51:59;;;;;;;6.53;4.25;;;29.20;99.90;;;;;;5108348;28;20126;-49
2023/08/25 02:54:25;;;;;;;7.22;4.45;;;29.30;99.90;;;;;;5107820;28;20359;-46
2023/08/25 02:56:52;;;;;;;7.07;3.90;;;29.30;99.90;;;;;;5107617;28;20035;-51
2023/08/25 02:59:18;;;;;;;7.85;3.95;;;29.30;99.90;;;;;;5107671;28;20047;-47
2023/08/25 03:01:45;;;;;;;7.45;3.90;;;29.30;99.90;;;;;;5107586;28;20019;-53
2023/08/25 03:04:11;;;;;;;6.88;3.70;;;29.30;99.90;;;;;;5107398;28;20066;-47
2023/08/25 03:06:39;;;;;;;7.35;3.85;;;29.30;99.90;;;;;;5107385;28;20024;-44
2023/08/25 03:09:05;;;;;;;4.60;3.97;;;29.30;99.90;;;;;;5106951;28;20295;-53
2023/08/25 03:11:32;;;;;;;6.55;3.72;;;29.20;99.90;;;;;;5116102;28;20019;-45
2023/08/25 03:13:59;;;;;;;9.18;3.45;;;29.20;99.90;;;;;;5127736;28;20016;-49
2023/08/25 03:16:25;;;;;;;6.78;3.70;;;29.20;99.90;;;;;;5127679;28;20315;-48
2023/08/25 03:18:52;;;;;;;4.68;3.30;;;29.10;99.90;;;;;;5127443;28;20028;-48
2023/08/25 03:21:18;;;;;;;5.40;3.50;;;29.10;99.90;;;;;;5127705;28;20030;-45
2023/08/25 03:23:45;;;;;;;7.57;4.40;;;29.10;99.90;;;;;;5127639;28;20064;-57
2023/08/25 03:26:12;;;;;;;6.45;4.05;;;29.10;99.90;;;;;;5127594;28;20058;-44
2023/08/25 03:28:39;;;;;;;6.43;3.63;;;29.00;99.90;;;;;;5127550;28;20026;-50
2023/08/25 03:31:05;;;;;;;8.50;3.95;;;29.00;99.90;;;;;;5128011;28;20155;-46
2023/08/25 03:33:32;;;;;;;5.53;3.90;;;28.90;99.90;;;;;;5127261;28;20023;-44
2023/08/25 03:35:58;;;;;;;4.95;3.78;;;28.90;99.90;;;;;;5127973;28;20031;-44
2023/08/25 03:38:25;;;;;;;4.38;3.78;;;28.90;99.90;;;;;;5127213;28;20200;-43
2023/08/25 03:40:58;;;;;;;6.03;3.35;;;28.90;99.90;;;;;;5127510;28;20035;-51
2023/08/25 03:43:24;;;;;;;6.60;3.80;;;28.90;99.90;;;;;;5127097;28;20020;-44
2023/08/25 03:45:51;;;;;;;5.20;3.58;;;28.90;99.90;;;;;;5127552;28;20030;-47
2023/08/25 03:48:17;;;;;;;4.38;3.58;;;28.90;99.90;;;;;;5127187;28;20326;-45
2023/08/25 03:50:48;;;;;;;5.72;3.80;;;28.90;99.90;;;;;;5127542;28;20035;-45
2023/08/25 03:53:15;;;;;;;4.80;3.50;;;28.90;99.90;;;;;;5127017;28;20015;-53
2023/08/25 03:55:41;;;;;;;7.25;3.72;;;28.90;99.90;;;;;;5117741;28;20031;-53
2023/08/25 03:58:08;;;;;;;6.53;3.45;;;28.90;99.90;;;;;;5106740;28;20016;-43
2023/08/25 04:00:34;;;;;;;7.43;3.72;;;28.90;99.90;;;;;;5106916;28;20051;-43
2023/08/25 04:03:03;;;;;;;4.43;3.47;;;28.90;99.90;;;;;;5106236;28;20024;-51
2023/08/25 04:05:30;;;;;;;6.60;3.22;;;29.00;99.90;;;;;;5106490;28;20028;-48
2023/08/25 04:07:57;;;;;;;5.80;3.17;;;28.90;99.90;;;;;;5106220;28;20016;-47
2023/08/25 04:10:24;;;;;;;5.18;3.13;;;28.90;99.90;;;;;;5106004;28;20024;-48
2023/08/25 04:12:51;;;;;;;5.43;3.13;;;28.90;99.90;;;;;;5106195;28;20020;-46
2023/08/25 04:15:21;;;;;;;6.13;3.67;;;28.90;99.90;;;;;;5106535;28;20059;-47
2023/08/25 04:17:48;;;;;;;6.47;3.80;;;28.90;99.90;;;;;;5108663;28;20046;-47
2023/08/25 04:20:14;;;;;;;6.95;3.83;;;28.80;99.90;;;;;;5115269;28;20028;-44
2023/08/25 04:22:41;;;;;;;5.35;3.58;;;28.80;99.90;;;;;;5106086;28;20020;-49
2023/08/25 04:25:08;;;;;;;9.50;4.00;;;28.80;99.90;;;;;;5105904;28;20035;-49
2023/08/25 04:27:34;;;;;;;8.50;3.50;;;28.80;99.90;;;;;;5105955;28;20015;-46
2023/08/25 04:30:01;;;;;;;6.32;3.53;;;28.80;99.90;;;;;;5111185;28;20035;-48
2023/08/25 04:32:28;;;;;;;7.55;3.58;;;28.80;99.90;;;;;;5110323;28;20009;-50
2023/08/25 04:34:55;;;;;;;6.05;3.30;;;28.80;99.90;;;;;;5105906;28;20027;-46
2023/08/25 04:37:21;;;;;;;7.20;3.40;;;28.80;99.90;;;;;;5105569;28;20047;-47
2023/08/25 04:39:48;;;;;;;4.78;3.25;;;28.80;99.90;;;;;;5105743;28;20028;-47
2023/08/25 04:42:14;;;;;;;7.60;3.50;;;28.70;99.90;;;;;;5105564;28;20016;-48
2023/08/25 04:44:41;;;;;;;5.57;3.65;;;28.70;99.90;;;;;;5105693;28;20091;-46
2023/08/25 04:47:08;;;;;;;4.05;3.00;;;28.70;99.90;;;;;;5105334;28;20016;-49
2023/08/25 04:49:34;;;;;;;10.98;3.80;;;28.70;99.90;;;;;;5105585;28;20189;-45
2023/08/25 04:52:01;;;;;;;4.35;3.78;;;28.60;99.90;;;;;;5105431;28;20031;-44
2023/08/25 04:54:27;;;;;;;3.60;3.28;;;28.60;99.90;;;;;;5105377;28;20035;-46
2023/08/25 04:56:54;;;;;;;6.05;3.22;;;28.60;99.90;;;;;;5105318;28;20137;-53
2023/08/25 04:59:20;;;;;;;4.07;3.33;;;28.60;99.90;;;;;;5105492;28;20292;-51
2023/08/25 05:01:47;;;;;;;7.57;3.15;;;28.60;99.90;;;;;;5105227;28;20326;-45
2023/08/25 05:04:14;;;;;;;7.38;3.88;;;28.60;99.90;;;;;;5105102;28;20032;-49
2023/08/25 05:06:40;;;;;;;8.75;3.53;;;28.50;99.90;;;;;;5104056;28;20096;-44
2023/08/25 05:09:07;;;;;;;5.68;3.30;;;28.50;99.90;;;;;;5105058;28;20063;-45
2023/08/25 05:11:34;;;;;;;7.38;3.28;;;28.50;99.90;;;;;;5104896;28;20016;-51
2023/08/25 05:14:01;;;;;;;7.35;3.72;;;28.60;99.90;;;;;;5104776;28;20114;-49
2023/08/25 05:16:28;;;;;;;6.40;3.67;;;28.60;99.90;;;;;;5104900;28;20020;-45
2023/08/25 05:18:54;;;;;;;6.53;3.53;;;28.60;99.90;;;;;;5104687;28;20087;-44
2023/08/25 05:21:21;;;;;;;7.18;3.53;;;28.60;99.90;;;;;;5104826;28;20024;-45
2023/08/25 05:23:48;;;;;;;6.53;3.55;;;28.60;99.90;;;;;;5104675;28;20016;-44
2023/08/25 05:26:15;;;;;;;4.15;3.20;;;28.60;99.90;;;;;;5104540;28;20031;-48
2023/08/25 05:28:43;;;;;;;5.20;2.95;;;28.50;99.90;;;;;;5104920;28;20079;-43
2023/08/25 05:31:09;;;;;;;4.30;2.90;;;28.50;99.90;;;;;;5105493;28;20027;-51
2023/08/25 05:33:36;;;;;;;5.97;3.17;;;28.50;99.90;;;;;;5104522;28;20020;-45
2023/08/25 05:36:03;;;;;;;7.40;3.28;;;28.50;99.90;;;;;;5105363;28;20077;-44
2023/08/25 05:38:29;;;;;;;6.50;3.42;;;28.50;99.90;;;;;;5104538;28;20073;-45
2023/08/25 05:40:56;;;;;;;3.53;2.75;;;28.50;99.90;;;;;;5104986;28;20047;-50
2023/08/25 05:43:22;;;;;;;5.65;3.20;;;28.40;99.90;;;;;;5104529;28;20204;-46
2023/08/25 05:45:49;;;;;;;4.35;3.00;;;28.40;99.90;;;;;;5104643;28;20069;-48
2023/08/25 05:48:16;;;;;;;6.72;3.22;;;28.40;99.90;;;;;;5104466;28;20027;-44
2023/08/25 05:50:42;;;;;;;5.07;3.20;;;28.50;99.90;;;;;;5104349;28;20043;-45
2023/08/25 05:53:10;;;;;;;6.38;3.17;;;28.40;99.90;;;;;;5104559;28;20047;-43
2023/08/25 05:55:36;;;;;;;5.28;3.30;;;28.30;99.90;;;;;;5104611;28;20077;-44
2023/08/25 05:58:03;;;;;;;5.45;3.40;;;28.30;99.90;;;;;;5104639;28;20023;-45
2023/08/25 06:00:30;;;;;;;5.15;3.20;;;28.30;99.90;;;;;;5104630;28;20077;-46
2023/08/25 06:02:56;;;;;;;5.90;3.80;;;28.30;99.90;;;;;;5104017;28;20024;-44
2023/08/25 06:05:23;;;;;;;4.78;3.38;;;28.30;99.90;;;;;;5104515;28;20570;-44
2023/08/25 06:07:49;;;;;;;5.93;3.15;;;28.30;99.90;;;;;;5104170;28;20055;-46
2023/08/25 06:10:16;;;;;;;5.00;3.30;;;28.20;99.90;;;;;;5104259;28;20024;-46
2023/08/25 06:12:43;;;;;;;6.60;3.20;;;28.20;99.90;;;;;;5104090;28;20058;-44
2023/08/25 06:15:10;;;;;;;6.35;3.50;;;28.10;99.90;;;;;;5104337;28;20065;-44
2023/08/25 06:17:36;;;;;;;8.50;3.58;;;28.10;99.90;;;;;;5103392;28;20024;-45
2023/08/25 06:20:03;;;;;;;5.35;3.33;;;28.10;99.90;;;;;;5104224;28;20042;-51
2023/08/25 06:22:30;;;;;;;7.35;3.70;;;28.10;99.90;;;;;;5104309;28;20035;-47
2023/08/25 06:24:56;;;;;;;7.47;4.00;;;28.10;99.90;;;;;;5104099;28;20028;-49
2023/08/25 06:27:23;;;;;;;5.53;3.47;;;28.20;99.90;;;;;;5103905;28;20222;-43
2023/08/25 06:29:49;;;;;;;5.43;3.67;;;28.20;99.90;;;;;;5104215;28;20031;-44
2023/08/25 06:32:16;;;;;;;5.15;3.42;;;28.10;99.90;;;;;;5103912;28;20028;-44
2023/08/25 06:34:42;;;;;;;6.07;3.38;;;28.10;99.90;;;;;;5121705;28;20087;-54
2023/08/25 06:37:09;;;;;;;4.95;3.67;;;28.10;99.90;;;;;;5124277;28;20065;-48
2023/08/25 06:39:36;;;;;;;8.18;3.78;;;28.10;99.90;;;;;;5124212;28;20067;-44
2023/08/25 06:42:05;;;;;;;5.95;3.35;;;28.10;99.90;;;;;;5124174;28;20137;-55
2023/08/25 06:44:32;;;;;;;5.85;3.60;;;28.10;99.90;;;;;;5124259;28;20032;-56
2023/08/25 06:46:58;;;;;;;5.65;3.65;;;28.20;99.90;;;;;;5124109;28;20027;-46
2023/08/25 06:49:25;;;;;;;6.05;3.63;;;28.10;99.90;;;;;;5124101;28;20023;-47
2023/08/25 06:51:51;;;;;;;5.13;3.45;;;28.10;99.90;;;;;;5124385;28;20256;-45
2023/08/25 06:54:18;;;;;;;5.57;3.53;;;28.10;99.90;;;;;;5124213;28;20053;-46
2023/08/25 06:56:45;;;;;;;4.22;3.60;;;28.10;99.90;;;;;;5124227;28;20024;-53
2023/08/25 06:59:13;;;;;;;4.32;3.60;;;28.00;99.90;;;;;;5124072;28;20031;-46
2023/08/25 07:01:40;;;;;;;10.60;4.22;;;28.00;99.90;;;;;;5123983;28;20024;-47
2023/08/25 07:04:07;;;;;;;5.55;3.55;;;28.00;99.90;;;;;;5118316;28;20050;-44
2023/08/25 07:06:34;;;;;;;4.68;3.70;;;28.00;99.90;;;;;;5108930;28;20020;-44
2023/08/25 07:09:01;;;;;;;6.53;3.70;;;28.00;99.90;;;;;;5112150;28;20095;-44
2023/08/25 07:11:27;;;;;;;7.43;3.78;;;28.00;99.90;;;;;;5109178;28;20024;-44
2023/08/25 07:13:54;;;;;;;4.85;3.60;;;27.90;99.90;;;;;;5112819;28;20077;-44
2023/08/25 07:16:21;;;;;;;6.20;3.80;;;;;;;;;;5103499;28;20340;-48
2023/08/25 07:18:47;;;;;;;7.57;4.05;;;28.00;99.90;;;;;;5103283;28;20024;-45
2023/08/25 07:21:14;;;;;;;7.82;3.53;;;27.90;99.90;;;;;;5103092;28;20058;-44
2023/08/25 07:23:43;;;;;;;5.03;3.20;;;27.90;99.90;;;;;;5103453;28;20020;-46
2023/08/25 07:26:10;;;;;;;7.25;3.67;;;27.90;99.90;;;;;;5103703;28;20031;-51
2023/08/25 07:28:37;;;;;;;4.50;3.70;;;27.80;99.90;;;;;;5103462;28;20016;-47
2023/08/25 07:31:04;;;;;;;7.43;3.80;;;27.80;99.90;;;;;;5107328;28;20047;-44
2023/08/25 07:33:30;;;;;;;6.00;3.50;;;27.80;99.90;;;;;;5106882;28;20012;-44
2023/08/25 07:36:04;;;;;;;5.63;3.50;;;27.80;99.90;;;;;;5106816;28;20028;-47
2023/08/25 07:38:31;;;;;;;5.32;3.53;;;27.80;99.90;;;;;;5106663;28;20204;-48
2023/08/25 07:40:57;;;;;;;6.43;3.67;;;27.80;99.90;;;;;;5107196;28;20077;-44
2023/08/25 07:43:24;;;;;;;7.05;3.80;;;27.80;99.90;;;;;;5106831;28;20044;-46
2023/08/25 07:45:50;;;;;;;7.82;3.72;;;27.80;99.90;;;;;;5107120;28;20020;-45
2023/08/25 07:48:17;;;;;;;6.40;3.63;;;27.70;99.90;;;;;;5106540;28;20018;-57
2023/08/25 07:50:43;;;;;;;9.02;3.80;;;27.80;99.90;;;;;;5107040;28;20032;-43
2023/08/25 07:53:13;;;;;;;5.18;4.00;;;27.80;99.90;;;;;;5106686;28;20079;-51
2023/08/25 07:55:40;;;;;;;7.43;3.60;;;27.70;99.90;;;;;;5106770;28;20039;-47
2023/08/25 07:58:08;;;;;;;6.15;3.42;;;27.70;99.90;;;;;;5106582;28;20208;-44
2023/08/25 08:00:35;;;;;;;6.22;3.70;;;27.70;99.90;;;;;;5106784;28;20029;-50
2023/08/25 08:03:03;;;;;;;6.45;3.80;;;27.70;99.90;;;;;;5106674;28;20266;-50
2023/08/25 08:05:30;;;;;;;8.88;3.80;;;27.70;99.90;;;;;;5106540;28;20338;-44
2023/08/25 08:07:58;;;;;;;6.60;3.72;;;27.70;99.90;;;;;;5106284;28;20020;-43
2023/08/25 08:10:26;;;;;;;5.70;3.92;;;27.70;99.90;;;;;;5106415;28;20081;-44
2023/08/25 08:12:52;;;;;;;6.80;4.25;;;27.70;99.90;;;;;;5106200;28;20181;-46
2023/08/25 08:15:19;;;;;;;7.78;4.25;;;27.60;99.90;;;;;;5106438;28;20296;-43
2023/08/25 08:17:45;;;;;;;5.30;3.92;;;27.60;99.90;;;;;;5106259;28;20027;-44
2023/08/25 08:20:12;;;;;;;5.53;3.72;;;27.60;99.90;;;;;;5106293;28;20142;-45
2023/08/25 08:22:42;;;;;;;5.35;3.83;;;27.50;99.90;;;;;;5108652;28;20031;-51
2023/08/25 08:25:10;;;;;;;7.10;4.03;;;27.50;99.90;;;;;;5126434;28;20031;-45
2023/08/25 08:27:38;;;;;;;6.68;3.97;;;27.50;99.90;;;;;;5126339;28;20019;-48
2023/08/25 08:30:05;;;;;;;4.50;3.55;;;27.50;99.90;;;;;;5126527;28;20091;-45
2023/08/25 08:32:35;;;;;;;7.35;3.70;;;27.50;99.90;;;;;;5126143;28;20082;-47
2023/08/25 08:35:08;;;;;;;6.80;4.00;;;27.50;99.90;;;;;;5126762;28;20091;-43
2023/08/25 08:37:40;;;;;;;5.05;3.63;;;27.50;99.90;;;;;;5125868;28;20020;-44
2023/08/25 08:40:10;;;;;;;4.60;3.90;;;27.50;99.90;;;;;;5126225;28;20062;-43
2023/08/25 08:42:39;;;;;;;6.70;3.70;;;27.50;99.90;;;;;;5126041;28;20019;-43
2023/08/25 08:45:09;;;;;;;6.68;3.88;;;;;;;;;;5126136;28;20215;-43
2023/08/25 08:47:37;;;;;;;4.38;3.58;;;27.50;99.90;;;;;;5126010;28;20087;-48
2023/08/25 08:50:06;;;;;;;9.68;4.35;;;27.40;99.90;;;;;;5126228;28;20023;-43
2023/08/25 08:52:33;;;;;;;5.13;3.88;;;27.40;99.90;;;;;;5125642;28;20019;-45
2023/08/25 08:55:00;;;;;;;8.27;3.67;;;27.40;99.90;;;;;;5112246;27;20019;-44
2023/08/25 08:57:28;;;;;;;4.03;3.58;;;27.30;99.90;;;;;;5108716;28;20078;-46
2023/08/25 08:59:59;;;;;;;8.38;3.78;;;27.30;99.90;;;;;;5121442;28;20088;-43
2023/08/25 09:02:30;;;;;;;7.38;3.78;;;27.30;99.90;;;;;;5111434;28;20023;-51
2023/08/25 09:04:58;;;;;;;4.35;3.90;;;27.30;99.90;;;;;;5104779;28;20024;-49
2023/08/25 09:07:32;;;;;;;4.57;3.75;;;27.30;99.90;;;;;;5105089;28;20018;-43
2023/08/25 09:10:00;;;;;;;4.75;3.88;;;27.30;99.90;;;;;;5105502;28;20028;-48
2023/08/25 09:12:27;;;;;;;6.95;4.05;;;27.40;99.90;;;;;;5112244;28;20011;-45
2023/08/25 09:14:53;;;;;;;5.10;4.60;;;27.40;99.90;;;;;;5125622;28;20184;-44
2023/08/25 09:17:21;;;;;;;8.35;4.50;;;27.40;99.90;;;;;;5125409;28;20242;-43
2023/08/25 09:19:49;;;;;;;11.68;5.10;;;27.30;99.90;;;;;;5125317;28;20083;-50
2023/08/25 09:22:19;;;;;;;4.28;3.88;;;27.30;99.90;;;;;;5125234;28;20015;-45
2023/08/25 09:24:45;;;;;;;8.38;4.13;;;27.30;99.90;;;;;;5112275;28;20054;-47
2023/08/25 09:27:25;;;;;;;6.13;4.30;;;27.30;99.90;;;;;;5104550;28;20023;-45
2023/08/25 09:29:59;;;;;;;8.57;4.30;;;27.30;99.90;;;;;;5105008;28;20272;-47
2023/08/25 09:32:28;;;;;;;6.82;5.25;;;27.30;99.90;;;;;;5104607;28;20016;-48
2023/08/25 09:34:55;;;;;;;7.05;5.00;;;27.30;99.90;;;;;;5104853;28;20031;-44
2023/08/25 09:37:22;;;;;;;6.55;4.65;;;27.30;99.90;;;;;;5104422;28;20057;-47
2023/08/25 09:39:48;;;;;;;8.82;5.32;;;27.30;99.90;;;;;;5104676;28;20032;-47
2023/08/25 09:42:16;;;;;;;6.50;4.65;;;27.20;99.90;;;;;;5104538;28;20016;-45
2023/08/25 09:44:43;;;;;;;6.13;4.70;;;27.30;99.90;;;;;;5104661;28;20028;-44
2023/08/25 09:47:10;;;;;;;11.95;4.63;;;27.30;99.90;;;;;;5104184;28;20028;-45
2023/08/25 09:49:40;;;;;;;7.00;5.05;;;27.20;99.90;;;;;;5104566;28;20219;-56
2023/08/25 09:52:08;;;;;;;5.55;4.43;;;27.20;99.90;;;;;;5103955;28;20020;-54
2023/08/25 09:54:34;;;;;;;5.32;4.40;;;27.10;99.90;;;;;;5104356;28;20031;-50
2023/08/25 09:57:02;;;;;;;4.82;3.75;;;27.10;99.90;;;;;;5104329;28;20015;-50
2023/08/25 09:59:29;;;;;;;5.97;4.70;;;27.10;99.90;;;;;;5104369;28;20279;-45
2023/08/25 10:01:57;;;;;;;6.80;4.68;;;27.20;99.90;;;;;;5104244;28;20020;-45
2023/08/25 10:04:24;;;;;;;8.82;4.88;;;27.10;99.90;;;;;;5104348;28;20121;-43
2023/08/25 10:06:51;;;;;;;8.38;4.75;;;27.10;99.90;;;;;;5104054;28;20030;-42
2023/08/25 10:09:20;;;;;;;9.93;4.97;;;27.10;99.90;;;;;;5104094;28;20020;-43
2023/08/25 10:11:50;;;;;;;10.15;5.18;;;27.10;99.90;;;;;;5104030;28;20316;-48
2023/08/25 10:14:21;;;;;;;5.80;4.70;;;27.00;99.90;;;;;;5104136;28;20317;-49
2023/08/25 10:16:53;;;;;;;9.27;4.65;;;27.00;99.90;;;;;;5104074;28;20016;-48
2023/08/25 10:19:24;;;;;;;14.63;4.88;;;27.00;99.90;;;;;;5104159;28;20032;-42
2023/08/25 10:21:52;;;;;;;4.77;4.23;;;27.00;99.90;;;;;;5113617;28;20024;-46
2023/08/25 10:24:22;;;;;;;9.85;5.03;;;27.00;99.90;;;;;;5104059;28;20294;-44
2023/08/25 10:26:50;;;;;;;8.43;5.25;;;27.10;99.90;;;;;;5103469;28;20012;-43
2023/08/25 10:29:20;;;;;;;6.80;5.75;;;27.00;99.90;;;;;;5124033;28;20028;-47
2023/08/25 10:31:47;;;;;;;7.55;5.47;;;27.10;99.90;;;;;;5109229;28;20316;-43
2023/08/25 10:34:35;;;;;;;8.70;5.40;;;27.00;99.90;;;;;;5124322;28;20027;-48
2023/08/25 10:37:09;;;;;;;11.32;5.95;;;27.00;99.90;;;;;;5124270;28;20020;-47
2023/08/25 10:40:02;;;;;;;10.57;5.53;;;27.00;99.90;;;;;;5124228;28;20231;-44
2023/08/25 10:42:33;;;;;;;10.35;5.60;;;27.00;99.90;;;;;;5118415;28;20240;-44
2023/08/25 10:45:08;;;;;;;14.40;7.88;;;27.00;99.90;;;;;;5105535;28;20235;-45
2023/08/25 10:47:42;;;;;;;17.13;9.60;;;27.00;99.90;;;;;;5113498;28;20030;-52
2023/08/25 10:50:09;;;;;;;16.23;10.15;;;27.00;99.90;;;;;;5108181;28;20083;-45
2023/08/25 10:52:43;;;;;;;16.25;10.13;;;27.00;99.90;;;;;;5107789;28;20091;-51
2023/08/25 10:55:29;;;;;;;14.10;9.05;;;27.00;99.90;;;;;;5124325;28;20046;-51
2023/08/25 10:58:18;;;;;;;10.73;8.13;;;27.00;99.90;;;;;;5117964;28;20242;-46
2023/08/25 11:00:45;;;;;;;10.82;7.65;;;27.00;99.90;;;;;;5113062;28;20078;-43
2023/08/25 11:03:13;;;;;;;12.20;7.03;;;27.00;99.90;;;;;;5122659;28;20199;-45
2023/08/25 11:05:44;;;;;;;14.93;6.68;;;27.00;99.90;;;;;;5116609;28;20028;-43
2023/08/25 11:08:27;;;;;;;11.90;6.45;;;27.10;99.90;;;;;;5109704;28;20341;-49
2023/08/25 11:11:12;;;;;;;6.75;5.97;;;27.00;99.90;;;;;;5128263;28;20051;-52
2023/08/25 11:13:39;;;;;;;9.32;5.28;;;27.00;99.90;;;;;;5127715;28;20019;-43
2023/08/25 11:16:15;;;;;;;10.15;5.40;;;27.00;99.90;;;;;;5128430;28;20300;-44
2023/08/25 11:18:43;;;;;;;10.27;5.30;;;27.10;99.90;;;;;;5127598;28;20023;-48
2023/08/25 11:21:10;;;;;;;7.90;5.18;;;27.10;99.90;;;;;;5126431;27;20094;-46
2023/08/25 11:23:46;;;;;;;8.52;5.20;;;27.10;99.90;;;;;;5126221;28;20019;-44
2023/08/25 11:26:16;;;;;;;7.25;4.72;;;27.10;99.90;;;;;;5122835;28;20028;-48
2023/08/25 11:28:46;;;;;;;7.97;5.25;;;27.20;99.90;;;;;;5124510;28;20054;-47
2023/08/25 11:31:13;;;;;;;8.57;4.90;;;27.20;99.90;;;;;;5113082;27;20072;-49
2023/08/25 11:33:40;;;;;;;8.25;5.00;;;27.20;99.90;;;;;;5113021;28;20032;-45
2023/08/25 11:36:06;;;;;;;7.68;4.78;;;27.20;99.90;;;;;;5112847;28;20030;-47
2023/08/25 11:38:33;;;;;;;8.77;4.72;;;27.30;99.90;;;;;;5114136;28;20044;-48
2023/08/25 11:41:00;;;;;;;6.72;5.18;;;27.30;99.90;;;;;;5119644;28;20055;-45
2023/08/25 11:43:36;;;;;;;9.63;5.40;;;27.30;99.90;;;;;;5120542;28;20023;-43
2023/08/25 11:46:06;;;;;;;7.50;5.65;;;27.40;99.90;;;;;;5114029;28;20335;-43
2023/08/25 11:48:37;;;;;;;7.65;5.32;;;27.30;99.90;;;;;;5127147;28;20016;-45
2023/08/25 11:51:04;;;;;;;6.88;4.75;;;27.30;99.90;;;;;;5122201;28;20027;-47
2023/08/25 11:53:31;;;;;;;18.92;17.02;;;27.30;99.90;;;;;;5119999;28;20011;-54
2023/08/25 11:56:05;;;;;;;9.15;6.90;;;27.40;99.90;;;;;;5126936;28;20072;-51
2023/08/25 11:58:36;;;;;;;9.27;5.45;;;27.50;99.90;;;;;;5116409;27;20020;-49
2023/08/25 12:01:11;;;;;;;13.38;5.13;;;27.60;99.90;;;;;;5107539;27;20039;-43
2023/08/25 12:03:42;;;;;;;10.35;5.50;;;27.70;99.90;;;;;;5106371;28;20027;-51
2023/08/25 12:06:10;;;;;;;8.80;4.65;;;27.80;99.90;;;;;;5106501;28;20355;-48
2023/08/25 12:08:40;;;;;;;6.57;4.10;;;27.90;99.90;;;;;;5106285;28;20054;-47
2023/08/25 12:11:10;;;;;;;6.18;4.70;;;27.90;99.90;;;;;;5106715;28;20028;-43
2023/08/25 12:13:44;;;;;;;8.18;5.00;;;28.00;99.90;;;;;;5106028;28;20012;-48
2023/08/25 12:16:14;;;;;;;6.22;4.43;;;28.10;99.90;;;;;;5106210;28;20096;-47
2023/08/25 12:18:42;;;;;;;7.78;4.50;;;28.20;99.90;;;;;;5104181;28;20258;-50
2023/08/25 12:21:09;;;;;;;7.18;4.32;;;28.20;99.90;;;;;;5104490;28;20035;-43
2023/08/25 12:23:40;;;;;;;5.18;4.40;;;28.30;99.90;;;;;;5104678;28;20018;-50
2023/08/25 12:26:11;;;;;;;5.15;4.20;;;28.40;99.90;;;;;;5105208;28;20032;-44
2023/08/25 12:28:40;;;;;;;5.00;4.07;;;28.40;99.90;;;;;;5105415;28;20015;-45
2023/08/25 12:31:08;;;;;;;6.68;4.28;;;28.50;99.90;;;;;;5106407;28;20055;-50
2023/08/25 12:33:34;;;;;;;5.78;4.60;;;28.60;99.90;;;;;;5105565;28;20047;-45
2023/08/25 12:36:01;;;;;;;5.50;4.60;;;28.60;99.90;;;;;;5106201;28;20024;-44
2023/08/25 12:38:29;;;;;;;5.32;4.70;;;28.70;99.90;;;;;;5105612;28;20423;-46
2023/08/25 12:40:58;;;;;;;5.75;4.50;;;28.70;99.90;;;;;;5105842;28;20036;-55
2023/08/25 12:43:25;;;;;;;4.97;4.25;;;28.70;99.90;;;;;;5105607;28;20024;-56
2023/08/25 12:45:52;;;;;;;4.82;4.22;;;28.80;99.90;;;;;;5105891;28;20272;-58
2023/08/25 12:48:19;;;;;;;6.07;4.50;;;28.80;99.90;;;;;;5105388;28;20075;-56
2023/08/25 12:50:46;;;;;;;5.78;4.40;;;28.90;99.90;;;;;;5105825;28;20024;-52